Time;durP1;ratioP1;P1;durP2;ratioP2;P2;SDS_P1;SDS_P2;PMS_P1;PMS_P2;Temp;Humidity;BMP_temperature;BMP_pressure;BME280_temperature;BME280_humidity;BME280_pressure;Samples;Min_cycle;Max_cycle;Signal;HPM_P1;HPM_P2
2023/12/29 00:04:45;;;;;;;0.70;0.50;;;;;;;7.49;79.41;150553.84;13031398;22;20015;-79
2023/12/29 00:09:47;;;;;;;0.68;0.50;;;;;;;7.22;80.61;150486.88;13053019;22;20015;-80
2023/12/29 00:14:49;;;;;;;0.60;0.50;;;;;;;6.94;82.70;150414.72;13036460;22;20015;-79
2023/12/29 00:19:53;;;;;;;0.85;0.55;;;;;;;6.80;83.60;150379.97;13048701;22;20445;-81
2023/12/29 00:24:55;;;;;;;0.93;0.40;;;;;;;6.81;84.37;150382.53;13075382;22;20011;-80
2023/12/29 00:29:57;;;;;;;1.48;0.60;;;;;;;6.64;85.04;150338.75;13047654;22;20019;-78
2023/12/29 00:34:58;;;;;;;2.53;0.85;;;;;;;6.65;86.71;150342.66;13048452;22;20046;-80
2023/12/29 00:40:01;;;;;;;0.40;0.40;;;;;;;7.24;85.02;150490.72;13051717;22;20441;-80
2023/12/29 00:45:04;;;;;;;0.85;0.45;;;;;;;7.72;81.92;150611.81;13025989;22;20019;-80
2023/12/29 00:50:07;;;;;;;0.65;0.40;;;;;;;7.77;81.67;150625.97;13078060;22;20037;-80
2023/12/29 00:55:09;;;;;;;0.40;0.38;;;;;;;8.01;80.34;150686.53;13060247;22;20015;-80
2023/12/29 01:00:12;;;;;;;0.70;0.40;;;;;;;8.00;79.85;150683.94;13063272;22;20057;-80
2023/12/29 01:05:17;;;;;;;0.43;0.30;;;;;;;8.02;79.71;150689.13;13033511;22;20019;-80
2023/12/29 01:10:19;;;;;;;0.50;0.50;;;;;;;8.15;78.78;150720.06;13056448;22;20019;-80
2023/12/29 01:15:21;;;;;;;0.60;0.30;;;;;;;7.96;79.69;150673.63;13054858;22;20019;-80
2023/12/29 01:20:23;;;;;;;0.63;0.30;;;;;;;7.91;79.98;150660.75;13026243;22;20023;-80
2023/12/29 01:25:25;;;;;;;0.35;0.30;;;;;;;8.21;78.17;150736.78;13024974;22;20019;-80
2023/12/29 01:30:26;;;;;;;0.45;0.30;;;;;;;8.24;77.67;150743.25;13050125;22;20396;-80
2023/12/29 01:35:28;;;;;;;0.45;0.32;;;;;;;8.17;77.91;150726.47;13028068;22;20020;-80
2023/12/29 01:40:30;;;;;;;0.32;0.30;;;;;;;8.08;78.11;150703.28;13053147;22;20023;-80
2023/12/29 01:45:31;;;;;;;0.30;0.30;;;;;;;8.14;77.75;150717.44;13051601;22;20015;-80
2023/12/29 01:50:40;;;;;;;0.20;0.20;;;;;;;8.28;76.57;150754.84;13046352;22;20053;-79
2023/12/29 01:55:43;;;;;;;0.30;0.30;;;;;;;8.27;76.00;150750.94;13045262;22;20019;-79
2023/12/29 02:00:45;;;;;;;0.20;0.20;;;;;;;8.38;75.55;150778.09;13045102;22;20023;-79
2023/12/29 02:05:48;;;;;;;0.40;0.17;;;;;;;8.18;76.21;150727.75;13019708;22;20043;-81
2023/12/29 02:10:50;;;;;;;0.13;0.13;;;;;;;8.12;76.70;150712.31;13071415;22;20063;-79
2023/12/29 02:15:57;;;;;;;0.30;0.20;;;;;;;8.44;75.81;150793.53;13073487;22;20015;-78
2023/12/29 02:20:59;;;;;;;0.20;0.20;;;;;;;8.03;77.63;150690.41;13061195;22;20446;-80
2023/12/29 02:26:07;;;;;;;0.35;0.20;;;;;;;7.63;79.73;150589.91;13072861;22;20019;-80
2023/12/29 02:31:20;;;;;;;0.17;0.13;;;;;;;7.61;80.26;150584.72;13074101;22;20038;-80
2023/12/29 02:36:22;;;;;;;0.32;0.20;;;;;;;7.54;81.12;150568.00;13100761;22;20019;-79
2023/12/29 02:41:24;;;;;;;0.20;0.17;;;;;;;7.20;83.10;150481.69;13085057;22;20011;-80
2023/12/29 02:46:26;;;;;;;0.55;0.30;;;;;;;6.97;83.57;150423.75;13082618;22;20022;-80
2023/12/29 02:51:28;;;;;;;0.10;0.10;;;;;;;7.02;85.08;150436.63;13081483;22;20011;-80
2023/12/29 02:56:29;;;;;;;0.30;0.25;;;;;;;7.09;87.28;150453.38;13051453;22;20019;-80
2023/12/29 03:01:31;;;;;;;0.10;0.10;;;;;;;7.81;82.30;150635.00;13081881;22;20015;-80
2023/12/29 03:06:33;;;;;;;0.20;0.20;;;;;;;7.84;81.59;150642.72;13091056;22;20118;-80
2023/12/29 03:11:35;;;;;;;0.20;0.20;;;;;;;7.90;81.07;150656.91;13051631;22;20037;-80
2023/12/29 03:16:37;;;;;;;0.47;0.20;;;;;;;8.04;80.20;150694.25;13078933;22;20082;-80
2023/12/29 03:21:38;;;;;;;0.13;0.13;;;;;;;8.11;80.17;150711.03;13027910;22;20015;-81
2023/12/29 03:26:40;;;;;;;0.28;0.20;;;;;;;8.13;80.22;150716.16;13079806;22;20023;-80
2023/12/29 03:31:42;;;;;;;1.27;0.30;;;;;;;8.47;78.90;150801.28;13026726;22;20073;-80
2023/12/29 03:36:44;;;;;;;0.20;0.20;;;;;;;8.43;78.64;150790.97;13088290;22;20019;-80
2023/12/29 03:41:46;;;;;;;0.30;0.20;;;;;;;7.99;81.31;150681.38;13036065;22;20016;-80
2023/12/29 03:46:49;;;;;;;0.10;0.10;;;;;;;7.58;83.66;150578.31;13053594;22;20065;-80
2023/12/29 03:51:51;;;;;;;0.30;0.10;;;;;;;7.50;84.83;150556.41;13081153;22;20012;-80
2023/12/29 03:56:52;;;;;;;0.28;0.20;;;;;;;7.44;85.77;150542.25;13082609;22;20015;-80
2023/12/29 04:01:54;;;;;;;0.22;0.22;;;;;;;7.88;84.16;150651.72;13025296;22;20072;-79
2023/12/29 04:06:56;;;;;;;0.20;0.20;;;;;;;7.81;83.96;150635.00;13049227;22;20019;-79
2023/12/29 04:11:58;;;;;;;0.32;0.20;;;;;;;8.05;82.49;150696.81;13050882;22;20019;-81
2023/12/29 04:17:03;;;;;;;0.30;0.30;;;;;;;8.11;82.79;150709.75;13022993;22;20019;-81
2023/12/29 04:22:05;;;;;;;0.50;0.30;;;;;;;8.52;80.28;150814.19;13048884;22;20015;-79
2023/12/29 04:27:07;;;;;;;0.50;0.40;;;;;;;8.75;79.00;150872.19;13049713;22;20023;-80
2023/12/29 04:32:09;;;;;;;0.20;0.20;;;;;;;8.58;79.93;150829.63;13078703;22;20032;-80
2023/12/29 04:37:11;;;;;;;0.40;0.32;;;;;;;8.49;80.25;150807.72;13050026;22;20026;-80
2023/12/29 04:42:13;;;;;;;0.73;0.38;;;;;;;8.66;78.13;150850.25;13028263;22;20019;-81
2023/12/29 04:47:16;;;;;;;0.30;0.30;;;;;;;8.83;75.63;150894.09;13062566;22;20026;-80
2023/12/29 04:52:18;;;;;;;0.80;0.35;;;;;;;8.96;72.92;150926.34;13054521;22;20022;-80
2023/12/29 04:57:20;;;;;;;0.40;0.30;;;;;;;8.88;72.86;150905.72;13054165;22;20019;-80
2023/12/29 05:02:21;;;;;;;0.30;0.30;;;;;;;9.00;71.92;150935.38;13056951;22;20015;-80
2023/12/29 05:07:24;;;;;;;0.38;0.30;;;;;;;8.92;72.12;150916.03;13034465;22;20022;-79
2023/12/29 05:12:25;;;;;;;0.38;0.32;;;;;;;8.88;71.80;150905.72;13087767;22;20022;-80
2023/12/29 05:17:27;;;;;;;1.27;0.30;;;;;;;8.99;70.56;150932.81;13058029;22;20026;-80
2023/12/29 05:22:29;;;;;;;1.13;0.30;;;;;;;8.85;71.63;150897.97;13031695;22;20068;-80
2023/12/29 05:27:31;;;;;;;0.50;0.50;;;;;;;9.07;69.96;150953.41;13059041;22;20030;-79
2023/12/29 05:32:34;;;;;;;0.28;0.28;;;;;;;9.04;70.62;150947.00;13080294;22;20015;-80
2023/12/29 05:37:35;;;;;;;0.75;0.30;;;;;;;9.01;71.44;150939.25;13050813;22;20027;-80
2023/12/29 05:42:37;;;;;;;1.95;0.45;;;;;;;8.86;73.45;150900.56;13025053;22;20019;-80
2023/12/29 05:47:39;;;;;;;0.80;0.47;;;;;;;8.79;74.94;150883.78;13028137;22;20023;-79
2023/12/29 05:52:41;;;;;;;0.70;0.32;;;;;;;8.92;74.89;150916.03;13030156;22;20073;-79
2023/12/29 05:57:43;;;;;;;0.47;0.43;;;;;;;8.92;74.74;150916.03;13064374;22;20015;-79
2023/12/29 06:02:45;;;;;;;0.75;0.60;;;;;;;8.81;75.46;150887.69;13086657;22;20022;-79
2023/12/29 06:07:46;;;;;;;0.73;0.50;;;;;;;8.73;75.60;150867.06;13050986;22;20022;-80
2023/12/29 06:12:48;;;;;;;1.30;0.50;;;;;;;8.93;74.48;150918.59;13043208;22;20062;-80
2023/12/29 06:17:50;;;;;;;0.50;0.40;;;;;;;8.87;73.77;150901.84;13076191;22;20011;-80
2023/12/29 06:22:52;;;;;;;0.32;0.30;;;;;;;8.89;73.03;150907.00;13049462;22;20007;-80
2023/12/29 06:27:54;;;;;;;0.40;0.32;;;;;;;9.00;71.11;150936.66;13023686;22;20357;-80
2023/12/29 06:32:56;;;;;;;0.82;0.40;;;;;;;9.01;69.95;150937.94;13046653;22;20023;-80
2023/12/29 06:37:58;;;;;;;1.13;0.52;;;;;;;8.98;69.29;150930.19;13053146;22;20039;-80
2023/12/29 06:43:00;;;;;;;0.43;0.40;;;;;;;9.02;68.04;150941.81;13081201;22;20033;-80
2023/12/29 06:48:02;;;;;;;0.50;0.50;;;;;;;9.02;67.58;150941.81;13048657;22;20090;-80
2023/12/29 06:53:04;;;;;;;0.73;0.60;;;;;;;9.03;67.48;150944.44;13020838;22;20417;-80
2023/12/29 06:58:07;;;;;;;1.20;0.50;;;;;;;9.08;67.06;150957.31;13073337;22;20023;-80
2023/12/29 07:03:12;;;;;;;1.10;0.40;;;;;;;9.08;67.11;150956.03;13045764;22;20037;-80
2023/12/29 07:08:14;;;;;;;1.52;0.35;;;;;;;9.19;67.15;150984.38;13074668;22;20019;-81
2023/12/29 07:13:16;;;;;;;0.32;0.32;;;;;;;9.10;67.90;150961.16;13073827;22;20019;-79
2023/12/29 07:18:18;;;;;;;0.47;0.45;;;;;;;9.24;67.45;150995.97;13074104;22;20015;-79
2023/12/29 07:23:20;;;;;;;0.30;0.30;;;;;;;9.17;68.51;150977.94;13073361;22;20444;-79
2023/12/29 07:28:22;;;;;;;0.65;0.30;;;;;;;9.11;69.01;150963.72;13042314;22;20019;-79
2023/12/29 07:33:24;;;;;;;1.38;0.50;;;;;;;9.08;68.95;150956.03;13044588;22;20012;-78
2023/12/29 07:38:26;;;;;;;0.60;0.52;;;;;;;9.10;68.53;150962.44;13071582;22;20023;-80
2023/12/29 07:43:28;;;;;;;0.55;0.50;;;;;;;9.16;68.55;150975.34;13070825;22;20011;-80
2023/12/29 07:48:29;;;;;;;0.82;0.52;;;;;;;9.29;68.08;151010.16;13072422;22;20071;-80
2023/12/29 07:53:31;;;;;;;0.52;0.40;;;;;;;9.18;68.93;150980.53;13071678;22;20019;-81
2023/12/29 07:58:33;;;;;;;0.50;0.50;;;;;;;9.23;68.99;150993.41;13043356;22;20026;-80
2023/12/29 08:03:36;;;;;;;0.95;0.50;;;;;;;9.35;68.38;151024.38;13071956;22;20362;-80
2023/12/29 08:08:37;;;;;;;0.30;0.30;;;;;;;9.28;68.92;151006.31;13046980;22;20041;-80
2023/12/29 08:13:39;;;;;;;0.57;0.43;;;;;;;9.32;69.16;151016.63;13050150;22;20020;-80
2023/12/29 08:18:41;;;;;;;0.60;0.47;;;;;;;9.36;68.87;151026.94;13073280;22;20064;-80
2023/12/29 08:23:43;;;;;;;0.80;0.50;;;;;;;9.34;69.12;151023.09;13071637;22;20031;-80
2023/12/29 08:28:45;;;;;;;0.70;0.50;;;;;;;9.49;68.74;151059.22;13076030;22;20016;-79
2023/12/29 08:33:47;;;;;;;0.70;0.45;;;;;;;9.66;68.46;151101.78;13080914;22;20040;-80
2023/12/29 08:38:49;;;;;;;1.52;0.50;;;;;;;9.67;68.72;151105.66;13082767;22;20044;-80
2023/12/29 08:43:50;;;;;;;0.45;0.45;;;;;;;9.53;70.02;151070.81;13050524;22;20015;-81
2023/12/29 08:48:52;;;;;;;1.33;0.50;;;;;;;9.60;69.52;151087.56;13077693;22;20090;-81
2023/12/29 08:53:54;;;;;;;1.17;0.45;;;;;;;9.64;69.24;151096.59;13047816;22;20019;-81
2023/12/29 08:58:56;;;;;;;1.52;0.40;;;;;;;9.81;68.30;151141.78;13048004;22;20083;-81
2023/12/29 09:03:58;;;;;;;1.02;0.60;;;;;;;9.65;69.40;151099.19;13079030;22;20035;-81
2023/12/29 09:09:00;;;;;;;0.50;0.40;;;;;;;9.85;68.28;151150.81;13080122;22;20462;-82
2023/12/29 09:14:02;;;;;;;1.02;0.50;;;;;;;9.82;68.64;151143.06;13082657;22;20016;-79
2023/12/29 09:19:03;;;;;;;1.48;0.55;;;;;;;9.91;67.86;151165.00;13048690;22;20457;-79
2023/12/29 09:24:23;;;;;;;0.50;0.40;;;;;;;9.72;69.33;151117.25;13074521;22;20011;-79
2023/12/29 09:29:24;;;;;;;0.50;0.50;;;;;;;9.86;68.77;151153.38;13041783;22;20023;-79
2023/12/29 09:34:26;;;;;;;1.17;0.35;;;;;;;9.89;68.61;151161.13;13064932;22;20022;-79
2023/12/29 09:39:28;;;;;;;0.47;0.40;;;;;;;9.99;68.12;151185.66;13081236;22;20022;-79
2023/12/29 09:44:31;;;;;;;0.70;0.63;;;;;;;9.92;68.79;151168.91;13048509;22;20019;-79
2023/12/29 09:49:40;;;;;;;0.50;0.30;;;;;;;9.89;69.22;151161.13;13073160;22;20011;-80
2023/12/29 09:54:44;;;;;;;0.50;0.50;;;;;;;10.17;67.46;151230.81;13048516;22;20019;-80
2023/12/29 09:59:51;;;;;;;1.02;0.50;;;;;;;10.06;67.93;151205.03;13077308;22;20019;-80
2023/12/29 10:04:53;;;;;;;0.68;0.40;;;;;;;10.16;67.56;151228.25;13078509;22;20015;-80
2023/12/29 10:10:01;;;;;;;0.35;0.32;;;;;;;10.24;66.81;151248.91;13071918;22;20098;-81
2023/12/29 10:15:24;;;;;;;0.40;0.35;;;;;;;10.26;66.68;151255.38;13075107;22;20091;-81
2023/12/29 10:20:37;;;;;;;0.70;0.40;;;;;;;10.34;66.91;151274.75;13074239;22;20023;-80
2023/12/29 10:25:40;;;;;;;0.57;0.40;;;;;;;10.37;67.47;151282.53;13084553;22;20007;-80
2023/12/29 10:30:42;;;;;;;0.70;0.30;;;;;;;10.35;66.97;151278.63;13067915;22;20462;-80
2023/12/29 10:35:57;;;;;;;0.95;0.35;;;;;;;10.40;66.58;151288.94;13082767;22;20015;-80
2023/12/29 10:41:14;;;;;;;1.30;0.50;;;;;;;10.43;66.63;151296.72;13077559;22;20019;-80
2023/12/29 10:46:17;;;;;;;0.50;0.38;;;;;;;10.31;66.92;151268.34;13049638;22;20011;-80
2023/12/29 10:51:27;;;;;;;0.68;0.40;;;;;;;10.39;67.62;151287.66;13072102;22;20019;-81
2023/12/29 10:56:29;;;;;;;0.73;0.57;;;;;;;10.35;67.47;151277.34;13070602;22;20350;-78
2023/12/29 11:01:35;;;;;;;0.40;0.30;;;;;;;10.59;66.46;151338.03;13050391;22;20026;-79
2023/12/29 11:06:44;;;;;;;1.05;0.50;;;;;;;10.51;66.67;151318.66;13047031;22;20069;-79
2023/12/29 11:11:46;;;;;;;8.07;0.63;;;;;;;10.55;66.81;151327.72;13075722;22;20019;-80
2023/12/29 11:16:49;;;;;;;0.40;0.32;;;;;;;11.23;63.71;151499.47;13055335;22;20349;-80
2023/12/29 11:21:57;;;;;;;0.75;0.40;;;;;;;11.34;63.16;151529.19;13095744;22;20056;-80
2023/12/29 11:27:00;;;;;;;0.43;0.30;;;;;;;11.39;63.38;151539.53;13076534;22;20060;-80
2023/12/29 11:32:06;;;;;;;0.57;0.30;;;;;;;11.80;61.92;151645.47;13075610;22;20015;-80
2023/12/29 11:37:27;;;;;;;0.30;0.30;;;;;;;11.71;61.52;151620.91;13079214;22;20361;-80
2023/12/29 11:42:35;;;;;;;0.52;0.40;;;;;;;11.59;61.89;151591.19;13080234;22;20098;-80
2023/12/29 11:47:38;;;;;;;0.30;0.30;;;;;;;11.75;61.36;151631.25;13081536;22;20044;-81
2023/12/29 11:52:40;;;;;;;1.33;0.30;;;;;;;11.36;62.43;151534.34;13040083;22;20016;-83
2023/12/29 11:57:41;;;;;;;0.40;0.40;;;;;;;11.04;64.19;151452.97;13038115;22;20023;-82
2023/12/29 12:02:44;;;;;;;1.00;0.40;;;;;;;11.01;64.58;151443.91;13064701;22;20052;-82
2023/12/29 12:07:46;;;;;;;5.38;0.40;;;;;;;11.05;64.16;151454.25;13037142;22;20073;-82
2023/12/29 12:12:51;;;;;;;0.35;0.30;;;;;;;10.96;63.97;151432.28;13065292;22;20026;-83
2023/12/29 12:17:53;;;;;;;0.32;0.30;;;;;;;10.88;64.47;151411.63;13074154;22;20071;-82
2023/12/29 12:23:05;;;;;;;0.98;0.40;;;;;;;10.84;65.25;151401.28;13080086;22;20012;-82
2023/12/29 12:28:07;;;;;;;0.70;0.50;;;;;;;10.92;65.55;151421.94;13065338;22;20019;-82
2023/12/29 12:33:13;;;;;;;0.95;0.40;;;;;;;10.89;66.51;151414.25;13037484;22;20056;-80
2023/12/29 12:38:22;;;;;;;0.50;0.40;;;;;;;10.89;65.73;151414.25;13064992;22;20016;-82
2023/12/29 12:43:26;;;;;;;0.50;0.47;;;;;;;10.93;65.98;151424.53;13065004;22;20011;-82
2023/12/29 12:48:35;;;;;;;0.40;0.35;;;;;;;10.88;66.53;151410.34;13037307;22;20082;-82
2023/12/29 12:53:41;;;;;;;0.93;0.50;;;;;;;10.79;67.36;151388.38;13064330;22;20015;-82
2023/12/29 12:58:43;;;;;;;0.40;0.40;;;;;;;10.90;66.61;151416.81;13064693;22;20015;-82
2023/12/29 13:03:45;;;;;;;0.77;0.40;;;;;;;10.99;66.30;151440.06;13067384;22;20441;-82
2023/12/29 13:08:51;;;;;;;0.63;0.40;;;;;;;10.93;67.31;151424.53;13067658;22;20073;-80
2023/12/29 13:13:57;;;;;;;0.40;0.20;;;;;;;10.98;65.66;151436.16;13066954;22;20015;-81
2023/12/29 13:19:20;;;;;;;1.17;0.50;;;;;;;10.75;66.40;151378.03;13065076;22;20016;-82
2023/12/29 13:24:25;;;;;;;0.88;0.30;;;;;;;10.88;65.46;151410.34;13063508;22;20036;-82
2023/12/29 13:29:29;;;;;;;1.83;0.40;;;;;;;10.92;65.23;151420.66;13067244;22;20034;-82
2023/12/29 13:34:38;;;;;;;0.73;0.32;;;;;;;10.88;65.40;151411.63;13061765;22;20019;-82
2023/12/29 13:39:55;;;;;;;0.50;0.45;;;;;;;10.93;65.59;151423.25;13063838;22;20090;-81
2023/12/29 13:44:57;;;;;;;;;;;;;;;10.97;65.30;151433.56;13037037;22;20015;-81
2023/12/29 13:49:59;;;;;;;1.10;0.40;;;;;;;10.91;65.70;151419.38;13034874;22;19915;-81
2023/12/29 13:55:01;;;;;;;0.52;0.20;;;;;;;10.97;64.88;151434.88;13063391;22;20033;-83
2023/12/29 14:00:16;;;;;;;0.60;0.30;;;;;;;10.94;65.15;151425.88;13036394;22;20019;-81
2023/12/29 14:05:31;;;;;;;0.63;0.50;;;;;;;10.88;65.22;151411.63;13061812;22;20349;-83
2023/12/29 14:10:34;;;;;;;0.73;0.30;;;;;;;10.91;65.00;151418.09;13062443;22;20015;-82
2023/12/29 14:15:42;;;;;;;2.00;0.40;;;;;;;10.93;65.00;151423.25;13062545;22;20023;-82
2023/12/29 14:20:43;;;;;;;0.47;0.30;;;;;;;10.95;64.80;151429.72;13062955;22;20019;-82
2023/12/29 14:25:47;;;;;;;0.50;0.32;;;;;;;11.11;63.52;151469.72;13035956;22;20015;-82
2023/12/29 14:30:49;;;;;;;1.13;0.30;;;;;;;11.03;64.24;151450.41;13062796;22;20520;-82
2023/12/29 14:35:51;;;;;;;0.60;0.40;;;;;;;11.08;63.79;151462.00;13036472;22;20038;-80
2023/12/29 14:40:52;;;;;;;1.17;0.50;;;;;;;11.13;63.50;151474.91;13062083;22;20475;-81
2023/12/29 14:45:54;;;;;;;0.30;0.30;;;;;;;11.09;64.12;151465.88;13061920;22;20011;-81
2023/12/29 14:50:57;;;;;;;0.47;0.30;;;;;;;11.02;64.11;151446.47;13067763;22;20015;-80
2023/12/29 14:55:59;;;;;;;0.43;0.35;;;;;;;11.07;63.99;151460.72;13075309;22;20022;-82
2023/12/29 15:01:01;;;;;;;0.40;0.22;;;;;;;10.90;64.64;151416.81;13088091;22;20030;-82
2023/12/29 15:06:04;;;;;;;0.30;0.20;;;;;;;10.92;64.39;151421.94;13063760;22;20015;-81
2023/12/29 15:11:07;;;;;;;0.63;0.20;;;;;;;10.96;64.55;151431.00;13090422;22;20011;-82
2023/12/29 15:16:09;;;;;;;0.93;0.20;;;;;;;10.84;65.46;151402.56;13090305;22;20015;-81
2023/12/29 15:21:11;;;;;;;0.45;0.28;;;;;;;10.96;64.93;151432.28;13073258;22;20019;-81
2023/12/29 15:26:15;;;;;;;0.40;0.30;;;;;;;11.01;64.71;151443.91;13075654;22;20007;-79
2023/12/29 15:31:17;;;;;;;0.30;0.20;;;;;;;11.03;64.96;151450.41;13080600;22;20015;-81
2023/12/29 15:36:23;;;;;;;0.60;0.50;;;;;;;11.03;65.38;151449.09;13044865;22;20045;-81
2023/12/29 15:41:25;;;;;;;0.30;0.30;;;;;;;10.97;65.42;151433.56;13067260;22;20015;-81
2023/12/29 15:46:26;;;;;;;0.63;0.40;;;;;;;10.71;66.74;151367.72;13044232;22;20007;-82
2023/12/29 15:51:30;;;;;;;0.45;0.30;;;;;;;10.86;65.80;151407.75;13010976;22;20046;-80
2023/12/29 15:56:31;;;;;;;0.65;0.32;;;;;;;10.90;65.62;151416.81;13063853;22;20015;-81
2023/12/29 16:01:35;;;;;;;0.30;0.30;;;;;;;10.72;66.98;151371.63;13063883;22;20054;-81
2023/12/29 16:06:38;;;;;;;0.30;0.30;;;;;;;10.70;67.02;151365.13;13064941;22;20022;-81
2023/12/29 16:11:40;;;;;;;0.40;0.40;;;;;;;10.60;67.71;151341.91;13068776;22;20078;-81
2023/12/29 16:16:41;;;;;;;1.67;0.40;;;;;;;10.70;67.48;151366.41;13037443;22;20015;-81
2023/12/29 16:21:43;;;;;;;0.70;0.30;;;;;;;10.75;67.57;151379.31;13034756;22;20023;-81
2023/12/29 16:26:45;;;;;;;0.60;0.40;;;;;;;10.63;68.32;151347.09;13062499;22;20011;-82
2023/12/29 16:31:49;;;;;;;0.35;0.32;;;;;;;10.61;67.82;151343.19;13063989;22;20030;-81
2023/12/29 16:37:00;;;;;;;0.98;0.30;;;;;;;10.58;68.00;151335.41;13035314;22;20019;-81
2023/12/29 16:42:03;;;;;;;1.88;1.20;;;;;;;10.64;67.69;151350.94;13065796;22;20015;-81
2023/12/29 16:47:05;;;;;;;1.40;0.88;;;;;;;10.74;67.42;151375.47;13064683;22;20011;-81
2023/12/29 16:52:07;;;;;;;0.50;0.32;;;;;;;10.58;67.79;151336.75;13063304;22;20015;-80
2023/12/29 16:57:08;;;;;;;0.30;0.30;;;;;;;10.61;68.16;151344.47;13064031;22;20019;-80
2023/12/29 17:02:10;;;;;;;0.40;0.20;;;;;;;10.65;67.67;151353.53;13065657;22;20015;-80
2023/12/29 17:07:12;;;;;;;2.05;0.43;;;;;;;10.57;67.81;151334.13;13063332;22;20015;-80
2023/12/29 17:12:14;;;;;;;0.30;0.30;;;;;;;10.43;68.65;151296.72;13073570;22;20460;-80
2023/12/29 17:17:16;;;;;;;0.30;0.30;;;;;;;10.53;68.10;151323.81;13086046;22;20433;-80
2023/12/29 17:22:18;;;;;;;0.63;0.40;;;;;;;10.40;68.53;151290.22;13085225;22;20022;-80
2023/12/29 17:27:22;;;;;;;0.40;0.28;;;;;;;10.41;68.60;151292.84;13017725;22;20325;-79
2023/12/29 17:32:24;;;;;;;0.40;0.25;;;;;;;10.25;69.20;151251.53;13068705;22;20019;-80
2023/12/29 17:37:28;;;;;;;1.33;0.65;;;;;;;10.23;68.99;151246.34;13074914;22;20011;-82
2023/12/29 17:42:29;;;;;;;0.28;0.28;;;;;;;10.31;68.38;151267.00;13068354;22;20019;-82
2023/12/29 17:47:31;;;;;;;0.60;0.38;;;;;;;10.42;68.10;151294.13;13066986;22;20046;-82
2023/12/29 17:52:33;;;;;;;0.30;0.30;;;;;;;10.33;68.19;151273.47;13069905;22;20434;-81
2023/12/29 17:57:39;;;;;;;0.50;0.35;;;;;;;10.33;68.22;151272.19;13071168;22;20072;-82
2023/12/29 18:02:41;;;;;;;2.00;0.93;;;;;;;10.51;67.05;151318.66;13073002;22;20015;-81
2023/12/29 18:07:43;;;;;;;0.45;0.40;;;;;;;10.50;67.10;151316.09;13040149;22;20015;-82
2023/12/29 18:12:44;;;;;;;1.45;0.82;;;;;;;10.49;67.29;151313.53;13068777;22;20441;-81
2023/12/29 18:17:46;;;;;;;0.50;0.40;;;;;;;10.40;67.71;151288.94;13037677;22;20045;-81
2023/12/29 18:22:49;;;;;;;0.32;0.30;;;;;;;10.35;67.97;151277.34;13066413;22;20020;-81
2023/12/29 18:27:51;;;;;;;0.28;0.20;;;;;;;10.46;67.90;151305.75;13065217;22;20450;-81
2023/12/29 18:32:53;;;;;;;0.40;0.40;;;;;;;10.63;66.62;151348.38;13064453;22;20019;-81
2023/12/29 18:37:54;;;;;;;0.45;0.45;;;;;;;10.73;66.15;151372.91;13064337;22;20042;-82
2023/12/29 18:42:57;;;;;;;0.82;0.50;;;;;;;10.64;66.47;151350.94;13036722;22;20057;-82
2023/12/29 18:48:00;;;;;;;0.30;0.30;;;;;;;10.74;66.06;151376.75;13066020;22;20023;-81
2023/12/29 18:53:04;;;;;;;0.57;0.20;;;;;;;10.58;66.58;151335.41;13061956;22;20011;-81
2023/12/29 18:58:05;;;;;;;0.30;0.30;;;;;;;10.62;66.74;151345.75;13061260;22;20015;-82
2023/12/29 19:03:07;;;;;;;0.22;0.20;;;;;;;10.71;66.33;151367.72;13059891;22;20025;-82
2023/12/29 19:08:09;;;;;;;0.30;0.28;;;;;;;10.58;66.88;151336.75;13062424;22;20049;-81
2023/12/29 19:13:10;;;;;;;0.60;0.30;;;;;;;10.59;67.06;151339.31;13039343;22;20023;-82
2023/12/29 19:18:12;;;;;;;0.30;0.30;;;;;;;10.63;67.02;151348.38;13069186;22;20019;-81
2023/12/29 19:23:14;;;;;;;0.45;0.40;;;;;;;10.70;66.38;151365.13;13064876;22;20067;-82
2023/12/29 19:28:16;;;;;;;0.60;0.32;;;;;;;10.62;66.82;151345.75;13062560;22;20042;-80
2023/12/29 19:33:17;;;;;;;0.55;0.22;;;;;;;10.41;67.79;151291.56;13063851;22;20391;-82
2023/12/29 19:38:19;;;;;;;0.50;0.28;;;;;;;10.44;67.29;151300.56;13063405;22;20068;-83
2023/12/29 19:43:21;;;;;;;0.60;0.50;;;;;;;10.31;68.06;151268.34;13064442;22;20015;-82
2023/12/29 19:48:23;;;;;;;0.20;0.20;;;;;;;10.37;67.56;151281.25;13064598;22;20449;-84
2023/12/29 19:53:26;;;;;;;0.63;0.40;;;;;;;10.44;67.08;151300.56;13036784;22;20019;-82
2023/12/29 19:58:28;;;;;;;0.38;0.38;;;;;;;10.55;66.75;151329.00;13078579;22;20015;-82
2023/12/29 20:03:33;;;;;;;0.57;0.40;;;;;;;10.53;67.13;151323.81;13082803;22;20103;-83
2023/12/29 20:08:35;;;;;;;0.82;0.40;;;;;;;10.61;66.85;151344.47;13059166;22;20345;-81
2023/12/29 20:13:36;;;;;;;0.22;0.22;;;;;;;10.46;67.36;151304.47;13077384;22;20380;-84
2023/12/29 20:18:38;;;;;;;0.20;0.20;;;;;;;10.73;66.49;151372.91;13077586;22;20030;-84
2023/12/29 20:23:40;;;;;;;0.55;0.35;;;;;;;10.77;66.60;151383.22;13048924;22;20023;-82
2023/12/29 20:28:42;;;;;;;0.32;0.30;;;;;;;10.75;66.90;151379.31;13042797;22;20042;-83
2023/12/29 20:33:43;;;;;;;0.80;0.32;;;;;;;10.80;66.51;151392.28;13067008;22;20019;-84
2023/12/29 20:38:48;;;;;;;0.68;0.40;;;;;;;10.81;66.80;151393.56;13069328;22;20081;-83
2023/12/29 20:43:54;;;;;;;0.77;0.30;;;;;;;10.89;66.01;151414.25;13041968;22;20026;-84
2023/12/29 20:48:56;;;;;;;0.40;0.20;;;;;;;10.89;66.29;151412.91;13041532;22;20026;-84
2023/12/29 20:53:58;;;;;;;0.65;0.20;;;;;;;10.76;67.21;151380.66;13040143;22;20272;-83
2023/12/29 20:59:00;;;;;;;0.22;0.22;;;;;;;10.73;67.29;151374.19;13038338;22;20030;-82
2023/12/29 21:04:03;;;;;;;0.20;0.20;;;;;;;10.86;66.55;151407.75;13039635;22;20101;-84
2023/12/29 21:09:05;;;;;;;0.30;0.30;;;;;;;10.85;66.28;151403.91;13041385;22;20019;-84
2023/12/29 21:14:07;;;;;;;0.85;0.30;;;;;;;10.72;66.78;151370.34;13038428;22;20345;-83
2023/12/29 21:19:11;;;;;;;0.30;0.30;;;;;;;10.65;67.29;151353.53;13012832;22;20019;-84
2023/12/29 21:24:13;;;;;;;1.90;0.30;;;;;;;10.59;67.78;151339.31;13066963;22;20018;-83
2023/12/29 21:29:15;;;;;;;0.20;0.20;;;;;;;10.57;67.92;151332.84;13069203;22;20019;-82
2023/12/29 21:34:18;;;;;;;0.40;0.40;;;;;;;10.64;67.76;151349.66;13038249;22;20453;-84
2023/12/29 21:39:20;;;;;;;0.20;0.20;;;;;;;10.65;67.62;151352.22;13066809;22;20042;-84
2023/12/29 21:44:21;;;;;;;0.20;0.20;;;;;;;10.70;67.16;151366.41;13065959;22;20091;-83
2023/12/29 21:49:23;;;;;;;0.65;0.28;;;;;;;10.67;67.44;151357.38;13072274;22;20015;-82
2023/12/29 21:54:26;;;;;;;0.63;0.32;;;;;;;10.74;67.31;151375.47;13016609;22;20015;-84
2023/12/29 21:59:28;;;;;;;0.40;0.30;;;;;;;10.61;67.80;151343.19;13071063;22;20015;-82
2023/12/29 22:04:30;;;;;;;1.20;0.40;;;;;;;10.50;68.33;151316.09;13068932;22;20076;-83
2023/12/29 22:09:32;;;;;;;0.73;0.45;;;;;;;10.45;68.52;151301.91;13068443;22;20038;-81
2023/12/29 22:14:34;;;;;;;0.85;0.30;;;;;;;10.51;68.64;151317.38;13067227;22;20350;-81
2023/12/29 22:19:35;;;;;;;0.28;0.28;;;;;;;10.49;68.17;151312.19;13068713;22;20026;-81
2023/12/29 22:24:37;;;;;;;1.05;0.50;;;;;;;10.54;68.15;151325.13;13070661;22;20018;-81
2023/12/29 22:29:41;;;;;;;0.20;0.20;;;;;;;10.48;68.27;151309.63;13065010;22;20026;-81
2023/12/29 22:34:42;;;;;;;0.20;0.20;;;;;;;10.38;68.69;151285.09;13065362;22;20468;-81
2023/12/29 22:39:44;;;;;;;0.20;0.20;;;;;;;10.44;67.85;151299.28;13078599;22;20023;-82
2023/12/29 22:44:46;;;;;;;0.20;0.20;;;;;;;10.53;66.83;151323.81;13063850;22;20011;-81
2023/12/29 22:49:48;;;;;;;0.20;0.20;;;;;;;10.53;66.59;151322.53;13035825;22;20030;-82
2023/12/29 22:54:50;;;;;;;0.30;0.30;;;;;;;10.47;66.54;151308.31;13036577;22;20087;-82
2023/12/29 22:59:52;;;;;;;0.20;0.20;;;;;;;10.52;66.49;151321.22;13063329;22;20019;-82
2023/12/29 23:04:54;;;;;;;0.17;0.17;;;;;;;10.29;67.67;151263.16;13065500;22;20460;-81
2023/12/29 23:09:55;;;;;;;0.22;0.20;;;;;;;10.44;66.75;151300.56;13071534;22;20027;-81
2023/12/29 23:14:57;;;;;;;0.13;0.13;;;;;;;10.13;68.15;151221.78;13082202;22;20078;-80
2023/12/29 23:19:59;;;;;;;0.25;0.20;;;;;;;10.36;67.04;151279.94;13074455;22;20035;-83
2023/12/29 23:25:01;;;;;;;0.30;0.20;;;;;;;10.30;67.27;151264.44;13063347;22;20015;-81